sensor_id;sensor_type;location;lat;lon;timestamp;pressure;altitude;pressure_sealevel;temperature;humidity
5679;BME280;2862;52.560;13.566;2023-02-08T00:04:59;103357.31;;;-1.97;84.71
5679;BME280;2862;52.560;13.566;2023-02-08T00:15:04;103361.69;;;-1.96;84.40
5679;BME280;2862;52.560;13.566;2023-02-08T00:25:08;103349.38;;;-2.03;84.84
5679;BME280;2862;52.560;13.566;2023-02-08T00:35:13;103347.53;;;-2.14;85.62
5679;BME280;2862;52.560;13.566;2023-02-08T00:45:16;103348.44;;;-2.11;86.11
5679;BME280;2862;52.560;13.566;2023-02-08T00:55:21;103350.13;;;-2.14;86.26
5679;BME280;2862;52.560;13.566;2023-02-08T01:05:24;103351.91;;;-2.13;86.11
5679;BME280;2862;52.560;13.566;2023-02-08T01:15:28;103358.13;;;-2.04;85.08
5679;BME280;2862;52.560;13.566;2023-02-08T01:25:32;103376.19;;;-2.27;85.40
5679;BME280;2862;52.560;13.566;2023-02-08T01:35:36;103367.16;;;-2.49;86.32
5679;BME280;2862;52.560;13.566;2023-02-08T01:45:40;103362.97;;;-2.36;86.97
5679;BME280;2862;52.560;13.566;2023-02-08T01:55:47;103355.03;;;-2.43;87.31
5679;BME280;2862;52.560;13.566;2023-02-08T02:05:56;103354.94;;;-2.50;87.21
5679;BME280;2862;52.560;13.566;2023-02-08T02:16:06;103353.13;;;-2.54;87.67
5679;BME280;2862;52.560;13.566;2023-02-08T02:36:46;103351.34;;;-2.57;87.55
5679;BME280;2862;52.560;13.566;2023-02-08T02:46:58;103369.47;;;-2.72;88.21
5679;BME280;2862;52.560;13.566;2023-02-08T02:57:09;103368.59;;;-2.73;87.95
5679;BME280;2862;52.560;13.566;2023-02-08T03:07:16;103364.31;;;-2.64;87.35
5679;BME280;2862;52.560;13.566;2023-02-08T03:17:33;103368.34;;;-2.89;87.25
5679;BME280;2862;52.560;13.566;2023-02-08T03:27:47;103375.16;;;-2.99;87.28
5679;BME280;2862;52.560;13.566;2023-02-08T03:37:56;103367.25;;;-3.04;87.38
5679;BME280;2862;52.560;13.566;2023-02-08T03:48:03;103370.97;;;-2.89;86.77
5679;BME280;2862;52.560;13.566;2023-02-08T03:58:15;103378.75;;;-2.92;86.42
5679;BME280;2862;52.560;13.566;2023-02-08T04:08:21;103375.06;;;-3.05;87.15
5679;BME280;2862;52.560;13.566;2023-02-08T04:18:26;103372.44;;;-3.05;87.26
5679;BME280;2862;52.560;13.566;2023-02-08T04:28:29;103373.31;;;-3.05;87.53
5679;BME280;2862;52.560;13.566;2023-02-08T04:38:34;103379.38;;;-3.09;87.67
5679;BME280;2862;52.560;13.566;2023-02-08T04:48:38;103366.22;;;-3.13;88.22
5679;BME280;2862;52.560;13.566;2023-02-08T04:58:42;103363.50;;;-3.19;87.50
5679;BME280;2862;52.560;13.566;2023-02-08T05:08:46;103369.31;;;-3.37;88.32
5679;BME280;2862;52.560;13.566;2023-02-08T05:18:50;103374.94;;;-3.66;89.37
5679;BME280;2862;52.560;13.566;2023-02-08T05:28:54;103370.09;;;-3.43;89.10
5679;BME280;2862;52.560;13.566;2023-02-08T05:38:59;103376.13;;;-3.45;89.25
5679;BME280;2862;52.560;13.566;2023-02-08T05:49:02;103380.63;;;-3.38;88.94
5679;BME280;2862;52.560;13.566;2023-02-08T05:59:08;103382.50;;;-3.31;88.09
5679;BME280;2862;52.560;13.566;2023-02-08T06:09:11;103387.19;;;-3.62;88.70
5679;BME280;2862;52.560;13.566;2023-02-08T06:19:15;103399.25;;;-3.68;89.41
5679;BME280;2862;52.560;13.566;2023-02-08T06:29:19;103416.31;;;-3.89;90.41
5679;BME280;2862;52.560;13.566;2023-02-08T06:39:23;103412.94;;;-3.83;90.53
5679;BME280;2862;52.560;13.566;2023-02-08T06:49:26;103412.75;;;-3.92;90.28
5679;BME280;2862;52.560;13.566;2023-02-08T06:59:31;103422.56;;;-3.79;90.08
5679;BME280;2862;52.560;13.566;2023-02-08T07:09:35;103422.78;;;-2.69;84.56
5679;BME280;2862;52.560;13.566;2023-02-08T07:19:39;103393.41;;;-1.73;80.14
5679;BME280;2862;52.560;13.566;2023-02-08T07:29:42;103385.94;;;0.13;83.23
5679;BME280;2862;52.560;13.566;2023-02-08T07:39:46;103403.06;;;-0.72;74.00
5679;BME280;2862;52.560;13.566;2023-02-08T07:49:49;103418.81;;;-0.72;74.24
5679;BME280;2862;52.560;13.566;2023-02-08T07:59:54;103431.41;;;-0.17;73.72
5679;BME280;2862;52.560;13.566;2023-02-08T08:09:56;103438.66;;;0.42;70.39
5679;BME280;2862;52.560;13.566;2023-02-08T08:20:01;103447.47;;;0.61;69.20
5679;BME280;2862;52.560;13.566;2023-02-08T08:30:05;103455.41;;;0.94;69.13
5679;BME280;2862;52.560;13.566;2023-02-08T08:40:10;103442.22;;;0.91;69.31
5679;BME280;2862;52.560;13.566;2023-02-08T08:50:13;103431.72;;;0.88;67.76
5679;BME280;2862;52.560;13.566;2023-02-08T09:00:17;103422.91;;;0.74;68.90
5679;BME280;2862;52.560;13.566;2023-02-08T09:10:20;103418.50;;;0.47;70.20
5679;BME280;2862;52.560;13.566;2023-02-08T09:20:24;103410.53;;;0.29;70.51
5679;BME280;2862;52.560;13.566;2023-02-08T09:30:27;103421.94;;;0.24;70.26
5679;BME280;2862;52.560;13.566;2023-02-08T09:40:37;103426.44;;;0.82;68.46
5679;BME280;2862;52.560;13.566;2023-02-08T09:50:46;103433.44;;;0.65;68.52
5679;BME280;2862;52.560;13.566;2023-02-08T10:00:52;103421.09;;;0.45;68.51
5679;BME280;2862;52.560;13.566;2023-02-08T10:11:04;103398.34;;;1.12;67.91
5679;BME280;2862;52.560;13.566;2023-02-08T10:21:23;103376.22;;;1.74;65.03
5679;BME280;2862;52.560;13.566;2023-02-08T10:31:41;103356.91;;;1.64;65.30
5679;BME280;2862;52.560;13.566;2023-02-08T10:41:47;103349.06;;;1.46;64.66
5679;BME280;2862;52.560;13.566;2023-02-08T10:51:51;103347.34;;;1.39;65.00
5679;BME280;2862;52.560;13.566;2023-02-08T11:01:57;103335.78;;;1.73;64.03
5679;BME280;2862;52.560;13.566;2023-02-08T11:12:00;103320.03;;;1.58;66.08
5679;BME280;2862;52.560;13.566;2023-02-08T11:22:05;103321.81;;;1.56;64.68
5679;BME280;2862;52.560;13.566;2023-02-08T11:32:15;103307.72;;;1.54;64.86
5679;BME280;2862;52.560;13.566;2023-02-08T11:42:21;103304.97;;;1.77;64.71
5679;BME280;2862;52.560;13.566;2023-02-08T11:52:27;103301.59;;;1.47;64.24
5679;BME280;2862;52.560;13.566;2023-02-08T12:02:38;103294.59;;;1.43;62.64
5679;BME280;2862;52.560;13.566;2023-02-08T12:12:52;103298.03;;;1.67;62.25
5679;BME280;2862;52.560;13.566;2023-02-08T12:23:10;103306.69;;;1.87;61.67
5679;BME280;2862;52.560;13.566;2023-02-08T12:33:28;103314.72;;;1.63;62.04
5679;BME280;2862;52.560;13.566;2023-02-08T12:43:46;103305.88;;;1.71;62.39
5679;BME280;2862;52.560;13.566;2023-02-08T12:53:55;103304.97;;;1.81;62.61
5679;BME280;2862;52.560;13.566;2023-02-08T13:04:05;103288.34;;;1.69;62.01
5679;BME280;2862;52.560;13.566;2023-02-08T13:14:28;103281.91;;;2.14;61.63
5679;BME280;2862;52.560;13.566;2023-02-08T13:24:38;103268.78;;;2.00;61.31
5679;BME280;2862;52.560;13.566;2023-02-08T13:34:45;103257.38;;;1.98;61.61
5679;BME280;2862;52.560;13.566;2023-02-08T13:44:52;103240.53;;;2.19;61.09
5679;BME280;2862;52.560;13.566;2023-02-08T14:05:41;103240.75;;;1.90;60.87
5679;BME280;2862;52.560;13.566;2023-02-08T14:15:46;103239.72;;;2.06;62.02
5679;BME280;2862;52.560;13.566;2023-02-08T14:26:19;103225.06;;;1.67;61.65
5679;BME280;2862;52.560;13.566;2023-02-08T14:36:28;103210.88;;;1.85;61.41
5679;BME280;2862;52.560;13.566;2023-02-08T14:46:42;103210.78;;;1.94;61.53
5679;BME280;2862;52.560;13.566;2023-02-08T14:56:53;103207.44;;;1.72;62.26
5679;BME280;2862;52.560;13.566;2023-02-08T15:07:22;103186.44;;;1.57;62.60
5679;BME280;2862;52.560;13.566;2023-02-08T15:17:34;103189.94;;;1.54;62.99
5679;BME280;2862;52.560;13.566;2023-02-08T15:27:46;103166.38;;;1.33;63.33
5679;BME280;2862;52.560;13.566;2023-02-08T15:37:51;103162.00;;;1.26;63.75
5679;BME280;2862;52.560;13.566;2023-02-08T15:47:56;103158.66;;;0.98;64.10
5679;BME280;2862;52.560;13.566;2023-02-08T15:58:02;103136.75;;;0.79;65.08
5679;BME280;2862;52.560;13.566;2023-02-08T16:08:20;103137.69;;;0.61;65.37
5679;BME280;2862;52.560;13.566;2023-02-08T16:18:32;103137.75;;;0.44;66.68
5679;BME280;2862;52.560;13.566;2023-02-08T16:28:38;103144.78;;;0.36;67.37
5679;BME280;2862;52.560;13.566;2023-02-08T16:38:40;103143.03;;;0.26;68.75
5679;BME280;2862;52.560;13.566;2023-02-08T16:48:49;103138.66;;;0.11;69.96
5679;BME280;2862;52.560;13.566;2023-02-08T16:58:52;103127.28;;;-0.02;70.94
5679;BME280;2862;52.560;13.566;2023-02-08T17:08:56;103127.31;;;-0.17;71.96
5679;BME280;2862;52.560;13.566;2023-02-08T17:19:00;103122.03;;;-0.20;72.21
5679;BME280;2862;52.560;13.566;2023-02-08T17:29:05;103124.66;;;-0.40;73.04
5679;BME280;2862;52.560;13.566;2023-02-08T17:39:09;103122.91;;;-0.36;73.34
5679;BME280;2862;52.560;13.566;2023-02-08T17:49:13;103107.16;;;-0.45;73.82
5679;BME280;2862;52.560;13.566;2023-02-08T17:59:17;103095.75;;;-0.44;73.96
5679;BME280;2862;52.560;13.566;2023-02-08T18:09:20;103086.97;;;-0.54;74.94
5679;BME280;2862;52.560;13.566;2023-02-08T18:19:23;103083.47;;;-0.65;75.96
5679;BME280;2862;52.560;13.566;2023-02-08T18:29:28;103077.31;;;-0.78;76.60
5679;BME280;2862;52.560;13.566;2023-02-08T18:39:31;103060.66;;;-0.89;77.56
5679;BME280;2862;52.560;13.566;2023-02-08T18:49:38;103053.66;;;-0.96;77.92
5679;BME280;2862;52.560;13.566;2023-02-08T18:59:45;103037.00;;;-1.12;78.84
5679;BME280;2862;52.560;13.566;2023-02-08T19:09:49;103032.63;;;-1.04;78.46
5679;BME280;2862;52.560;13.566;2023-02-08T19:19:52;103008.06;;;-1.29;80.10
5679;BME280;2862;52.560;13.566;2023-02-08T19:29:56;103001.06;;;-1.38;80.11
5679;BME280;2862;52.560;13.566;2023-02-08T19:40:02;102988.75;;;-1.49;80.55
5679;BME280;2862;52.560;13.566;2023-02-08T19:50:07;102986.16;;;-1.40;80.41
5679;BME280;2862;52.560;13.566;2023-02-08T20:00:12;102974.78;;;-1.45;80.40
5679;BME280;2862;52.560;13.566;2023-02-08T20:10:26;102960.84;;;-1.30;79.68
5679;BME280;2862;52.560;13.566;2023-02-08T20:20:29;102965.16;;;-1.52;80.19
5679;BME280;2862;52.560;13.566;2023-02-08T20:30:33;102965.16;;;-1.49;79.75
5679;BME280;2862;52.560;13.566;2023-02-08T20:40:36;102967.72;;;-1.62;80.03
5679;BME280;2862;52.560;13.566;2023-02-08T20:50:40;102957.22;;;-1.77;80.46
5679;BME280;2862;52.560;13.566;2023-02-08T21:00:43;102937.03;;;-1.92;81.49
5679;BME280;2862;52.560;13.566;2023-02-08T21:10:48;102941.44;;;-1.78;80.74
5679;BME280;2862;52.560;13.566;2023-02-08T21:20:52;102925.69;;;-1.92;81.29
5679;BME280;2862;52.560;13.566;2023-02-08T21:30:57;102908.19;;;-1.99;81.50
5679;BME280;2862;52.560;13.566;2023-02-08T21:41:04;102893.34;;;-1.91;81.02
5679;BME280;2862;52.560;13.566;2023-02-08T21:51:09;102879.28;;;-2.13;81.52
5679;BME280;2862;52.560;13.566;2023-02-08T22:01:29;102866.19;;;-2.13;80.93
5679;BME280;2862;52.560;13.566;2023-02-08T22:11:34;102854.78;;;-2.18;80.81
5679;BME280;2862;52.560;13.566;2023-02-08T22:21:37;102846.03;;;-2.25;81.03
5679;BME280;2862;52.560;13.566;2023-02-08T22:31:41;102843.47;;;-2.17;80.24
5679;BME280;2862;52.560;13.566;2023-02-08T22:41:45;102835.59;;;-2.14;79.83
5679;BME280;2862;52.560;13.566;2023-02-08T22:51:49;102830.34;;;-2.28;80.41
5679;BME280;2862;52.560;13.566;2023-02-08T23:01:52;102814.56;;;-2.40;80.67
5679;BME280;2862;52.560;13.566;2023-02-08T23:11:56;102802.41;;;-2.23;80.27
5679;BME280;2862;52.560;13.566;2023-02-08T23:21:59;102807.63;;;-2.20;79.59
5679;BME280;2862;52.560;13.566;2023-02-08T23:32:04;102812.00;;;-2.28;79.91
5679;BME280;2862;52.560;13.566;2023-02-08T23:42:07;102804.06;;;-2.43;80.45
5679;BME280;2862;52.560;13.566;2023-02-08T23:52:27;102803.16;;;-2.47;80.56
